<?xml version="1.0" encoding="UTF-8"?>
<gpx version="1.0" creator="Trackator" xmlns:xsi="http://www.w3.org/2001/XMLSchema-instance" xmlns="http://www.topografix.com/GPX/1/0" xmlns:topografix="http://www.topografix.com/GPX/Private/TopoGrafix/0/1" xsi:schemaLocation="http://www.topografix.com/GPX/1/0 http://www.topografix.com/GPX/1/0/gpx.xsd http://www.topografix.com/GPX/Private/TopoGrafix/0/1 http://www.topografix.com/GPX/Private/TopoGrafix/0/1/topografix.xsd">
<metadata>
<link href="http://www.trackalia.com/trackatorweb.php">
<text>Trackator</text>
</link>
</metadata>
<time>2017-09-30T13:52:11Z</time>
<trk>
<name>Track: </name>
<desc>Paragliding</desc>
<trkseg>
<trkpt lat="37.8626965" lon="-1.4264236">
<ele>529</ele>
<time>2017-09-30T13:52:11Z</time>
</trkpt>
<trkpt lat="37.8625278" lon="-1.4263524">
<ele>528</ele>
<time>2017-09-30T13:52:17Z</time>
</trkpt>
<trkpt lat="37.8623252" lon="-1.4264886">
<ele>528</ele>
<time>2017-09-30T13:52:23Z</time>
</trkpt>
<trkpt lat="37.8621350" lon="-1.4268339">
<ele>528</ele>
<time>2017-09-30T13:52:29Z</time>
</trkpt>
<trkpt lat="37.8619896" lon="-1.4270091">
<ele>529</ele>
<time>2017-09-30T13:52:35Z</time>
</trkpt>
<trkpt lat="37.8618788" lon="-1.4266608">
<ele>531</ele>
<time>2017-09-30T13:52:41Z</time>
</trkpt>
<trkpt lat="37.8619656" lon="-1.4261503">
<ele>533</ele>
<time>2017-09-30T13:52:47Z</time>
</trkpt>
<trkpt lat="37.8617635" lon="-1.4259446">
<ele>533</ele>
<time>2017-09-30T13:52:53Z</time>
</trkpt>
<trkpt lat="37.8617035" lon="-1.4264445">
<ele>533</ele>
<time>2017-09-30T13:52:59Z</time>
</trkpt>
<trkpt lat="37.8619161" lon="-1.4270384">
<ele>532</ele>
<time>2017-09-30T13:53:05Z</time>
</trkpt>
<trkpt lat="37.8619855" lon="-1.4276127">
<ele>531</ele>
<time>2017-09-30T13:53:11Z</time>
</trkpt>
<trkpt lat="37.8620772" lon="-1.4282114">
<ele>530</ele>
<time>2017-09-30T13:53:17Z</time>
</trkpt>
<trkpt lat="37.8622479" lon="-1.4287879">
<ele>528</ele>
<time>2017-09-30T13:53:23Z</time>
</trkpt>
<trkpt lat="37.8623456" lon="-1.4294334">
<ele>528</ele>
<time>2017-09-30T13:53:29Z</time>
</trkpt>
<trkpt lat="37.8624428" lon="-1.4300026">
<ele>526</ele>
<time>2017-09-30T13:53:35Z</time>
</trkpt>
<trkpt lat="37.8623629" lon="-1.4305698">
<ele>526</ele>
<time>2017-09-30T13:53:41Z</time>
</trkpt>
<trkpt lat="37.8622599" lon="-1.4311388">
<ele>524</ele>
<time>2017-09-30T13:53:47Z</time>
</trkpt>
<trkpt lat="37.8622100" lon="-1.4317460">
<ele>521</ele>
<time>2017-09-30T13:53:53Z</time>
</trkpt>
<trkpt lat="37.8622397" lon="-1.4324964">
<ele>517</ele>
<time>2017-09-30T13:53:59Z</time>
</trkpt>
<trkpt lat="37.8621732" lon="-1.4332005">
<ele>518</ele>
<time>2017-09-30T13:54:05Z</time>
</trkpt>
<trkpt lat="37.8620623" lon="-1.4338346">
<ele>518</ele>
<time>2017-09-30T13:54:11Z</time>
</trkpt>
<trkpt lat="37.8618743" lon="-1.4343801">
<ele>518</ele>
<time>2017-09-30T13:54:17Z</time>
</trkpt>
<trkpt lat="37.8615941" lon="-1.4346037">
<ele>517</ele>
<time>2017-09-30T13:54:23Z</time>
</trkpt>
<trkpt lat="37.8614390" lon="-1.4343085">
<ele>520</ele>
<time>2017-09-30T13:54:29Z</time>
</trkpt>
<trkpt lat="37.8615935" lon="-1.4339105">
<ele>526</ele>
<time>2017-09-30T13:54:35Z</time>
</trkpt>
<trkpt lat="37.8619608" lon="-1.4336460">
<ele>530</ele>
<time>2017-09-30T13:54:41Z</time>
</trkpt>
<trkpt lat="37.8622796" lon="-1.4333677">
<ele>532</ele>
<time>2017-09-30T13:54:47Z</time>
</trkpt>
<trkpt lat="37.8621980" lon="-1.4331025">
<ele>533</ele>
<time>2017-09-30T13:54:53Z</time>
</trkpt>
<trkpt lat="37.8618977" lon="-1.4333890">
<ele>535</ele>
<time>2017-09-30T13:54:59Z</time>
</trkpt>
<trkpt lat="37.8617884" lon="-1.4340320">
<ele>540</ele>
<time>2017-09-30T13:55:05Z</time>
</trkpt>
<trkpt lat="37.8618090" lon="-1.4347492">
<ele>545</ele>
<time>2017-09-30T13:55:11Z</time>
</trkpt>
<trkpt lat="37.8616945" lon="-1.4352842">
<ele>556</ele>
<time>2017-09-30T13:55:17Z</time>
</trkpt>
<trkpt lat="37.8614584" lon="-1.4354891">
<ele>567</ele>
<time>2017-09-30T13:55:23Z</time>
</trkpt>
<trkpt lat="37.8611307" lon="-1.4353606">
<ele>572</ele>
<time>2017-09-30T13:55:29Z</time>
</trkpt>
<trkpt lat="37.8610688" lon="-1.4350003">
<ele>578</ele>
<time>2017-09-30T13:55:35Z</time>
</trkpt>
<trkpt lat="37.8612804" lon="-1.4345433">
<ele>583</ele>
<time>2017-09-30T13:55:41Z</time>
</trkpt>
<trkpt lat="37.8616811" lon="-1.4342675">
<ele>593</ele>
<time>2017-09-30T13:55:47Z</time>
</trkpt>
<trkpt lat="37.8623358" lon="-1.4342886">
<ele>601</ele>
<time>2017-09-30T13:55:53Z</time>
</trkpt>
<trkpt lat="37.8626317" lon="-1.4349008">
<ele>610</ele>
<time>2017-09-30T13:55:59Z</time>
</trkpt>
<trkpt lat="37.8624744" lon="-1.4352596">
<ele>619</ele>
<time>2017-09-30T13:56:05Z</time>
</trkpt>
<trkpt lat="37.8623031" lon="-1.4354320">
<ele>624</ele>
<time>2017-09-30T13:56:11Z</time>
</trkpt>
<trkpt lat="37.8620747" lon="-1.4355324">
<ele>633</ele>
<time>2017-09-30T13:56:17Z</time>
</trkpt>
<trkpt lat="37.8618017" lon="-1.4356194">
<ele>647</ele>
<time>2017-09-30T13:56:23Z</time>
</trkpt>
<trkpt lat="37.8615717" lon="-1.4356200">
<ele>655</ele>
<time>2017-09-30T13:56:29Z</time>
</trkpt>
<trkpt lat="37.8613714" lon="-1.4354483">
<ele>667</ele>
<time>2017-09-30T13:56:35Z</time>
</trkpt>
<trkpt lat="37.8612173" lon="-1.4350668">
<ele>682</ele>
<time>2017-09-30T13:56:41Z</time>
</trkpt>
<trkpt lat="37.8611459" lon="-1.4345710">
<ele>694</ele>
<time>2017-09-30T13:56:47Z</time>
</trkpt>
<trkpt lat="37.8613478" lon="-1.4340628">
<ele>703</ele>
<time>2017-09-30T13:56:53Z</time>
</trkpt>
<trkpt lat="37.8618529" lon="-1.4337196">
<ele>712</ele>
<time>2017-09-30T13:56:59Z</time>
</trkpt>
<trkpt lat="37.8625086" lon="-1.4338446">
<ele>718</ele>
<time>2017-09-30T13:57:05Z</time>
</trkpt>
<trkpt lat="37.8628866" lon="-1.4344482">
<ele>724</ele>
<time>2017-09-30T13:57:11Z</time>
</trkpt>
<trkpt lat="37.8628580" lon="-1.4349744">
<ele>733</ele>
<time>2017-09-30T13:57:17Z</time>
</trkpt>
<trkpt lat="37.8626786" lon="-1.4352618">
<ele>742</ele>
<time>2017-09-30T13:57:23Z</time>
</trkpt>
<trkpt lat="37.8624212" lon="-1.4353445">
<ele>752</ele>
<time>2017-09-30T13:57:29Z</time>
</trkpt>
<trkpt lat="37.8621734" lon="-1.4354015">
<ele>757</ele>
<time>2017-09-30T13:57:35Z</time>
</trkpt>
<trkpt lat="37.8619501" lon="-1.4354380">
<ele>762</ele>
<time>2017-09-30T13:57:41Z</time>
</trkpt>
<trkpt lat="37.8616906" lon="-1.4354182">
<ele>760</ele>
<time>2017-09-30T13:57:47Z</time>
</trkpt>
<trkpt lat="37.8616267" lon="-1.4349991">
<ele>756</ele>
<time>2017-09-30T13:57:53Z</time>
</trkpt>
<trkpt lat="37.8619290" lon="-1.4344387">
<ele>751</ele>
<time>2017-09-30T13:57:59Z</time>
</trkpt>
<trkpt lat="37.8622551" lon="-1.4338746">
<ele>746</ele>
<time>2017-09-30T13:58:05Z</time>
</trkpt>
<trkpt lat="37.8625112" lon="-1.4334794">
<ele>745</ele>
<time>2017-09-30T13:58:11Z</time>
</trkpt>
<trkpt lat="37.8627545" lon="-1.4330575">
<ele>745</ele>
<time>2017-09-30T13:58:17Z</time>
</trkpt>
<trkpt lat="37.8628972" lon="-1.4325800">
<ele>747</ele>
<time>2017-09-30T13:58:23Z</time>
</trkpt>
<trkpt lat="37.8629196" lon="-1.4321025">
<ele>749</ele>
<time>2017-09-30T13:58:29Z</time>
</trkpt>
<trkpt lat="37.8628829" lon="-1.4316636">
<ele>750</ele>
<time>2017-09-30T13:58:35Z</time>
</trkpt>
<trkpt lat="37.8627770" lon="-1.4312522">
<ele>752</ele>
<time>2017-09-30T13:58:41Z</time>
</trkpt>
<trkpt lat="37.8626411" lon="-1.4309050">
<ele>753</ele>
<time>2017-09-30T13:58:47Z</time>
</trkpt>
<trkpt lat="37.8624109" lon="-1.4307764">
<ele>753</ele>
<time>2017-09-30T13:58:53Z</time>
</trkpt>
<trkpt lat="37.8621728" lon="-1.4308627">
<ele>754</ele>
<time>2017-09-30T13:58:59Z</time>
</trkpt>
<trkpt lat="37.8620365" lon="-1.4310820">
<ele>756</ele>
<time>2017-09-30T13:59:05Z</time>
</trkpt>
<trkpt lat="37.8619462" lon="-1.4314361">
<ele>756</ele>
<time>2017-09-30T13:59:11Z</time>
</trkpt>
<trkpt lat="37.8618077" lon="-1.4318103">
<ele>755</ele>
<time>2017-09-30T13:59:17Z</time>
</trkpt>
<trkpt lat="37.8617759" lon="-1.4321999">
<ele>756</ele>
<time>2017-09-30T13:59:23Z</time>
</trkpt>
<trkpt lat="37.8616771" lon="-1.4325688">
<ele>756</ele>
<time>2017-09-30T13:59:29Z</time>
</trkpt>
<trkpt lat="37.8615752" lon="-1.4328726">
<ele>756</ele>
<time>2017-09-30T13:59:35Z</time>
</trkpt>
<trkpt lat="37.8614975" lon="-1.4332080">
<ele>755</ele>
<time>2017-09-30T13:59:41Z</time>
</trkpt>
<trkpt lat="37.8614082" lon="-1.4335357">
<ele>752</ele>
<time>2017-09-30T13:59:47Z</time>
</trkpt>
<trkpt lat="37.8613722" lon="-1.4339574">
<ele>749</ele>
<time>2017-09-30T13:59:53Z</time>
</trkpt>
<trkpt lat="37.8613588" lon="-1.4343529">
<ele>745</ele>
<time>2017-09-30T13:59:59Z</time>
</trkpt>
<trkpt lat="37.8613425" lon="-1.4347476">
<ele>743</ele>
<time>2017-09-30T14:00:05Z</time>
</trkpt>
<trkpt lat="37.8612783" lon="-1.4351226">
<ele>740</ele>
<time>2017-09-30T14:00:11Z</time>
</trkpt>
<trkpt lat="37.8612030" lon="-1.4355233">
<ele>738</ele>
<time>2017-09-30T14:00:17Z</time>
</trkpt>
<trkpt lat="37.8611090" lon="-1.4358650">
<ele>736</ele>
<time>2017-09-30T14:00:23Z</time>
</trkpt>
<trkpt lat="37.8609735" lon="-1.4362184">
<ele>733</ele>
<time>2017-09-30T14:00:29Z</time>
</trkpt>
<trkpt lat="37.8607531" lon="-1.4365544">
<ele>730</ele>
<time>2017-09-30T14:00:35Z</time>
</trkpt>
<trkpt lat="37.8605171" lon="-1.4368811">
<ele>727</ele>
<time>2017-09-30T14:00:41Z</time>
</trkpt>
<trkpt lat="37.8602506" lon="-1.4372538">
<ele>725</ele>
<time>2017-09-30T14:00:47Z</time>
</trkpt>
<trkpt lat="37.8600527" lon="-1.4376314">
<ele>723</ele>
<time>2017-09-30T14:00:53Z</time>
</trkpt>
<trkpt lat="37.8598661" lon="-1.4379739">
<ele>721</ele>
<time>2017-09-30T14:00:58Z</time>
</trkpt>
<trkpt lat="37.8596764" lon="-1.4383725">
<ele>720</ele>
<time>2017-09-30T14:01:04Z</time>
</trkpt>
<trkpt lat="37.8595436" lon="-1.4388468">
<ele>718</ele>
<time>2017-09-30T14:01:10Z</time>
</trkpt>
<trkpt lat="37.8594241" lon="-1.4393354">
<ele>712</ele>
<time>2017-09-30T14:01:16Z</time>
</trkpt>
<trkpt lat="37.8593189" lon="-1.4397576">
<ele>705</ele>
<time>2017-09-30T14:01:22Z</time>
</trkpt>
<trkpt lat="37.8591874" lon="-1.4401880">
<ele>697</ele>
<time>2017-09-30T14:01:28Z</time>
</trkpt>
<trkpt lat="37.8590371" lon="-1.4406001">
<ele>691</ele>
<time>2017-09-30T14:01:34Z</time>
</trkpt>
<trkpt lat="37.8588997" lon="-1.4410423">
<ele>684</ele>
<time>2017-09-30T14:01:40Z</time>
</trkpt>
<trkpt lat="37.8587788" lon="-1.4415272">
<ele>677</ele>
<time>2017-09-30T14:01:46Z</time>
</trkpt>
<trkpt lat="37.8587141" lon="-1.4421120">
<ele>671</ele>
<time>2017-09-30T14:01:52Z</time>
</trkpt>
<trkpt lat="37.8585958" lon="-1.4426489">
<ele>660</ele>
<time>2017-09-30T14:01:58Z</time>
</trkpt>
<trkpt lat="37.8583815" lon="-1.4430435">
<ele>651</ele>
<time>2017-09-30T14:02:04Z</time>
</trkpt>
<trkpt lat="37.8581385" lon="-1.4434000">
<ele>646</ele>
<time>2017-09-30T14:02:10Z</time>
</trkpt>
<trkpt lat="37.8579258" lon="-1.4437756">
<ele>642</ele>
<time>2017-09-30T14:02:16Z</time>
</trkpt>
<trkpt lat="37.8577013" lon="-1.4441113">
<ele>635</ele>
<time>2017-09-30T14:02:22Z</time>
</trkpt>
<trkpt lat="37.8576507" lon="-1.4436822">
<ele>623</ele>
<time>2017-09-30T14:02:28Z</time>
</trkpt>
<trkpt lat="37.8579561" lon="-1.4431854">
<ele>614</ele>
<time>2017-09-30T14:02:34Z</time>
</trkpt>
<trkpt lat="37.8583410" lon="-1.4427242">
<ele>608</ele>
<time>2017-09-30T14:02:40Z</time>
</trkpt>
<trkpt lat="37.8587343" lon="-1.4422922">
<ele>604</ele>
<time>2017-09-30T14:02:46Z</time>
</trkpt>
<trkpt lat="37.8591327" lon="-1.4418561">
<ele>600</ele>
<time>2017-09-30T14:02:52Z</time>
</trkpt>
<trkpt lat="37.8594504" lon="-1.4413255">
<ele>596</ele>
<time>2017-09-30T14:02:58Z</time>
</trkpt>
<trkpt lat="37.8598003" lon="-1.4407802">
<ele>593</ele>
<time>2017-09-30T14:03:04Z</time>
</trkpt>
<trkpt lat="37.8601503" lon="-1.4402289">
<ele>590</ele>
<time>2017-09-30T14:03:10Z</time>
</trkpt>
<trkpt lat="37.8605812" lon="-1.4397576">
<ele>587</ele>
<time>2017-09-30T14:03:16Z</time>
</trkpt>
<trkpt lat="37.8609532" lon="-1.4392973">
<ele>584</ele>
<time>2017-09-30T14:03:22Z</time>
</trkpt>
<trkpt lat="37.8612075" lon="-1.4387417">
<ele>581</ele>
<time>2017-09-30T14:03:28Z</time>
</trkpt>
<trkpt lat="37.8614114" lon="-1.4381571">
<ele>576</ele>
<time>2017-09-30T14:03:34Z</time>
</trkpt>
<trkpt lat="37.8616390" lon="-1.4375252">
<ele>569</ele>
<time>2017-09-30T14:03:40Z</time>
</trkpt>
<trkpt lat="37.8618884" lon="-1.4369383">
<ele>566</ele>
<time>2017-09-30T14:03:46Z</time>
</trkpt>
<trkpt lat="37.8621306" lon="-1.4363047">
<ele>562</ele>
<time>2017-09-30T14:03:52Z</time>
</trkpt>
<trkpt lat="37.8622786" lon="-1.4356864">
<ele>561</ele>
<time>2017-09-30T14:03:58Z</time>
</trkpt>
<trkpt lat="37.8624024" lon="-1.4350720">
<ele>559</ele>
<time>2017-09-30T14:04:04Z</time>
</trkpt>
<trkpt lat="37.8624899" lon="-1.4344652">
<ele>557</ele>
<time>2017-09-30T14:04:10Z</time>
</trkpt>
<trkpt lat="37.8626156" lon="-1.4339079">
<ele>555</ele>
<time>2017-09-30T14:04:16Z</time>
</trkpt>
<trkpt lat="37.8627307" lon="-1.4333089">
<ele>553</ele>
<time>2017-09-30T14:04:22Z</time>
</trkpt>
<trkpt lat="37.8628405" lon="-1.4326939">
<ele>553</ele>
<time>2017-09-30T14:04:28Z</time>
</trkpt>
<trkpt lat="37.8629630" lon="-1.4320608">
<ele>552</ele>
<time>2017-09-30T14:04:34Z</time>
</trkpt>
<trkpt lat="37.8630786" lon="-1.4314849">
<ele>553</ele>
<time>2017-09-30T14:04:40Z</time>
</trkpt>
<trkpt lat="37.8632183" lon="-1.4309161">
<ele>555</ele>
<time>2017-09-30T14:04:46Z</time>
</trkpt>
<trkpt lat="37.8631970" lon="-1.4305009">
<ele>557</ele>
<time>2017-09-30T14:04:52Z</time>
</trkpt>
<trkpt lat="37.8631754" lon="-1.4301476">
<ele>563</ele>
<time>2017-09-30T14:04:58Z</time>
</trkpt>
<trkpt lat="37.8629999" lon="-1.4298026">
<ele>564</ele>
<time>2017-09-30T14:05:04Z</time>
</trkpt>
<trkpt lat="37.8627879" lon="-1.4297640">
<ele>570</ele>
<time>2017-09-30T14:05:10Z</time>
</trkpt>
<trkpt lat="37.8626094" lon="-1.4298824">
<ele>582</ele>
<time>2017-09-30T14:05:16Z</time>
</trkpt>
<trkpt lat="37.8625037" lon="-1.4298823">
<ele>592</ele>
<time>2017-09-30T14:05:22Z</time>
</trkpt>
<trkpt lat="37.8624575" lon="-1.4301473">
<ele>603</ele>
<time>2017-09-30T14:05:28Z</time>
</trkpt>
<trkpt lat="37.8625900" lon="-1.4306364">
<ele>606</ele>
<time>2017-09-30T14:05:34Z</time>
</trkpt>
<trkpt lat="37.8630416" lon="-1.4310705">
<ele>612</ele>
<time>2017-09-30T14:05:40Z</time>
</trkpt>
<trkpt lat="37.8636790" lon="-1.4308413">
<ele>623</ele>
<time>2017-09-30T14:05:46Z</time>
</trkpt>
<trkpt lat="37.8638463" lon="-1.4302647">
<ele>636</ele>
<time>2017-09-30T14:05:52Z</time>
</trkpt>
<trkpt lat="37.8638524" lon="-1.4300396">
<ele>641</ele>
<time>2017-09-30T14:05:58Z</time>
</trkpt>
<trkpt lat="37.8637631" lon="-1.4300734">
<ele>639</ele>
<time>2017-09-30T14:06:04Z</time>
</trkpt>
<trkpt lat="37.8637934" lon="-1.4305358">
<ele>642</ele>
<time>2017-09-30T14:06:10Z</time>
</trkpt>
<trkpt lat="37.8637047" lon="-1.4306042">
<ele>642</ele>
<time>2017-09-30T14:06:16Z</time>
</trkpt>
<trkpt lat="37.8635860" lon="-1.4305915">
<ele>641</ele>
<time>2017-09-30T14:06:22Z</time>
</trkpt>
<trkpt lat="37.8635239" lon="-1.4310635">
<ele>640</ele>
<time>2017-09-30T14:06:28Z</time>
</trkpt>
<trkpt lat="37.8632778" lon="-1.4313842">
<ele>640</ele>
<time>2017-09-30T14:06:34Z</time>
</trkpt>
<trkpt lat="37.8631155" lon="-1.4316316">
<ele>641</ele>
<time>2017-09-30T14:06:40Z</time>
</trkpt>
<trkpt lat="37.8629329" lon="-1.4318869">
<ele>643</ele>
<time>2017-09-30T14:06:46Z</time>
</trkpt>
<trkpt lat="37.8627417" lon="-1.4320222">
<ele>645</ele>
<time>2017-09-30T14:06:52Z</time>
</trkpt>
<trkpt lat="37.8625529" lon="-1.4323305">
<ele>650</ele>
<time>2017-09-30T14:06:58Z</time>
</trkpt>
<trkpt lat="37.8623443" lon="-1.4325490">
<ele>653</ele>
<time>2017-09-30T14:07:04Z</time>
</trkpt>
<trkpt lat="37.8621342" lon="-1.4327951">
<ele>656</ele>
<time>2017-09-30T14:07:10Z</time>
</trkpt>
<trkpt lat="37.8619657" lon="-1.4331479">
<ele>662</ele>
<time>2017-09-30T14:07:16Z</time>
</trkpt>
<trkpt lat="37.8618080" lon="-1.4333076">
<ele>666</ele>
<time>2017-09-30T14:07:22Z</time>
</trkpt>
<trkpt lat="37.8616274" lon="-1.4333887">
<ele>675</ele>
<time>2017-09-30T14:07:28Z</time>
</trkpt>
<trkpt lat="37.8614975" lon="-1.4337707">
<ele>683</ele>
<time>2017-09-30T14:07:34Z</time>
</trkpt>
<trkpt lat="37.8618113" lon="-1.4342288">
<ele>688</ele>
<time>2017-09-30T14:07:40Z</time>
</trkpt>
<trkpt lat="37.8624373" lon="-1.4341508">
<ele>692</ele>
<time>2017-09-30T14:07:46Z</time>
</trkpt>
<trkpt lat="37.8630720" lon="-1.4338155">
<ele>697</ele>
<time>2017-09-30T14:07:52Z</time>
</trkpt>
<trkpt lat="37.8633978" lon="-1.4332661">
<ele>703</ele>
<time>2017-09-30T14:07:58Z</time>
</trkpt>
<trkpt lat="37.8633813" lon="-1.4328444">
<ele>711</ele>
<time>2017-09-30T14:08:04Z</time>
</trkpt>
<trkpt lat="37.8633016" lon="-1.4328873">
<ele>717</ele>
<time>2017-09-30T14:08:10Z</time>
</trkpt>
<trkpt lat="37.8631977" lon="-1.4331038">
<ele>722</ele>
<time>2017-09-30T14:08:16Z</time>
</trkpt>
<trkpt lat="37.8629564" lon="-1.4330810">
<ele>734</ele>
<time>2017-09-30T14:08:22Z</time>
</trkpt>
<trkpt lat="37.8627273" lon="-1.4328814">
<ele>751</ele>
<time>2017-09-30T14:08:28Z</time>
</trkpt>
<trkpt lat="37.8624809" lon="-1.4327205">
<ele>764</ele>
<time>2017-09-30T14:08:34Z</time>
</trkpt>
<trkpt lat="37.8622596" lon="-1.4329692">
<ele>780</ele>
<time>2017-09-30T14:08:40Z</time>
</trkpt>
<trkpt lat="37.8622886" lon="-1.4334501">
<ele>795</ele>
<time>2017-09-30T14:08:46Z</time>
</trkpt>
<trkpt lat="37.8627361" lon="-1.4339712">
<ele>811</ele>
<time>2017-09-30T14:08:52Z</time>
</trkpt>
<trkpt lat="37.8634685" lon="-1.4340476">
<ele>828</ele>
<time>2017-09-30T14:08:58Z</time>
</trkpt>
<trkpt lat="37.8640858" lon="-1.4336967">
<ele>836</ele>
<time>2017-09-30T14:09:04Z</time>
</trkpt>
<trkpt lat="37.8642232" lon="-1.4331198">
<ele>838</ele>
<time>2017-09-30T14:09:10Z</time>
</trkpt>
<trkpt lat="37.8640593" lon="-1.4328797">
<ele>840</ele>
<time>2017-09-30T14:09:16Z</time>
</trkpt>
<trkpt lat="37.8638323" lon="-1.4329669">
<ele>847</ele>
<time>2017-09-30T14:09:22Z</time>
</trkpt>
<trkpt lat="37.8637132" lon="-1.4334427">
<ele>854</ele>
<time>2017-09-30T14:09:28Z</time>
</trkpt>
<trkpt lat="37.8643589" lon="-1.4344850">
<ele>869</ele>
<time>2017-09-30T14:09:40Z</time>
</trkpt>
<trkpt lat="37.8650121" lon="-1.4343641">
<ele>879</ele>
<time>2017-09-30T14:09:46Z</time>
</trkpt>
<trkpt lat="37.8653997" lon="-1.4338585">
<ele>886</ele>
<time>2017-09-30T14:09:52Z</time>
</trkpt>
<trkpt lat="37.8653814" lon="-1.4334060">
<ele>891</ele>
<time>2017-09-30T14:09:58Z</time>
</trkpt>
<trkpt lat="37.865" lon="-1.43395">
<ele>892</ele>
<time>2017-09-30T14:10:16Z</time>
</trkpt>
<trkpt lat="37.865" lon="-1.43445">
<ele>890</ele>
<time>2017-09-30T14:10:22Z</time>
</trkpt>
<trkpt lat="37.8648" lon="-1.43451">
<ele>890</ele>
<time>2017-09-30T14:10:28Z</time>
</trkpt>
<trkpt lat="37.8647" lon="-1.43415">
<ele>887</ele>
<time>2017-09-30T14:10:34Z</time>
</trkpt>
<trkpt lat="37.8647" lon="-1.43382">
<ele>885</ele>
<time>2017-09-30T14:10:40Z</time>
</trkpt>
<trkpt lat="37.8647" lon="-1.43346">
<ele>882</ele>
<time>2017-09-30T14:10:46Z</time>
</trkpt>
<trkpt lat="37.8647059" lon="-1.4330286">
<ele>881</ele>
<time>2017-09-30T14:10:52Z</time>
</trkpt>
<trkpt lat="37.8647696" lon="-1.4325157">
<ele>880</ele>
<time>2017-09-30T14:10:58Z</time>
</trkpt>
<trkpt lat="37.8648074" lon="-1.4321226">
<ele>880</ele>
<time>2017-09-30T14:11:04Z</time>
</trkpt>
<trkpt lat="37.8647070" lon="-1.4317296">
<ele>882</ele>
<time>2017-09-30T14:11:10Z</time>
</trkpt>
<trkpt lat="37.8645591" lon="-1.4312877">
<ele>884</ele>
<time>2017-09-30T14:11:16Z</time>
</trkpt>
<trkpt lat="37.8644575" lon="-1.4308539">
<ele>888</ele>
<time>2017-09-30T14:11:22Z</time>
</trkpt>
<trkpt lat="37.8643298" lon="-1.4304708">
<ele>893</ele>
<time>2017-09-30T14:11:28Z</time>
</trkpt>
<trkpt lat="37.8641974" lon="-1.4301962">
<ele>897</ele>
<time>2017-09-30T14:11:34Z</time>
</trkpt>
<trkpt lat="37.8640146" lon="-1.4299404">
<ele>896</ele>
<time>2017-09-30T14:11:40Z</time>
</trkpt>
<trkpt lat="37.8639101" lon="-1.4295800">
<ele>894</ele>
<time>2017-09-30T14:11:46Z</time>
</trkpt>
<trkpt lat="37.8638728" lon="-1.4292549">
<ele>895</ele>
<time>2017-09-30T14:11:52Z</time>
</trkpt>
<trkpt lat="37.8638204" lon="-1.4289897">
<ele>897</ele>
<time>2017-09-30T14:11:58Z</time>
</trkpt>
<trkpt lat="37.8636475" lon="-1.4288427">
<ele>898</ele>
<time>2017-09-30T14:12:04Z</time>
</trkpt>
<trkpt lat="37.8634958" lon="-1.4285677">
<ele>899</ele>
<time>2017-09-30T14:12:10Z</time>
</trkpt>
<trkpt lat="37.8635419" lon="-1.4280411">
<ele>898</ele>
<time>2017-09-30T14:12:16Z</time>
</trkpt>
<trkpt lat="37.8639358" lon="-1.4276132">
<ele>896</ele>
<time>2017-09-30T14:12:22Z</time>
</trkpt>
<trkpt lat="37.8645557" lon="-1.4274034">
<ele>894</ele>
<time>2017-09-30T14:12:28Z</time>
</trkpt>
<trkpt lat="37.8650373" lon="-1.4278282">
<ele>894</ele>
<time>2017-09-30T14:12:34Z</time>
</trkpt>
<trkpt lat="37.8651552" lon="-1.4283281">
<ele>895</ele>
<time>2017-09-30T14:12:40Z</time>
</trkpt>
<trkpt lat="37.8650359" lon="-1.4285854">
<ele>894</ele>
<time>2017-09-30T14:12:46Z</time>
</trkpt>
<trkpt lat="37.8649263" lon="-1.4288357">
<ele>895</ele>
<time>2017-09-30T14:12:52Z</time>
</trkpt>
<trkpt lat="37.8648200" lon="-1.4291676">
<ele>892</ele>
<time>2017-09-30T14:12:58Z</time>
</trkpt>
<trkpt lat="37.8646877" lon="-1.4294173">
<ele>882</ele>
<time>2017-09-30T14:13:04Z</time>
</trkpt>
<trkpt lat="37.8645389" lon="-1.4298416">
<ele>870</ele>
<time>2017-09-30T14:13:11Z</time>
</trkpt>
<trkpt lat="37.8644487" lon="-1.4303295">
<ele>866</ele>
<time>2017-09-30T14:13:17Z</time>
</trkpt>
<trkpt lat="37.8643293" lon="-1.4307850">
<ele>863</ele>
<time>2017-09-30T14:13:23Z</time>
</trkpt>
<trkpt lat="37.8641770" lon="-1.4312135">
<ele>860</ele>
<time>2017-09-30T14:13:29Z</time>
</trkpt>
<trkpt lat="37.8640504" lon="-1.4316476">
<ele>856</ele>
<time>2017-09-30T14:13:35Z</time>
</trkpt>
<trkpt lat="37.8638778" lon="-1.4320907">
<ele>851</ele>
<time>2017-09-30T14:13:41Z</time>
</trkpt>
<trkpt lat="37.8637504" lon="-1.4325141">
<ele>846</ele>
<time>2017-09-30T14:13:47Z</time>
</trkpt>
<trkpt lat="37.8634788" lon="-1.4329468">
<ele>843</ele>
<time>2017-09-30T14:13:53Z</time>
</trkpt>
<trkpt lat="37.8633927" lon="-1.4333310">
<ele>845</ele>
<time>2017-09-30T14:13:59Z</time>
</trkpt>
<trkpt lat="37.8633468" lon="-1.4336892">
<ele>848</ele>
<time>2017-09-30T14:14:05Z</time>
</trkpt>
<trkpt lat="37.8633202" lon="-1.4341304">
<ele>842</ele>
<time>2017-09-30T14:14:11Z</time>
</trkpt>
<trkpt lat="37.8632602" lon="-1.4346028">
<ele>831</ele>
<time>2017-09-30T14:14:17Z</time>
</trkpt>
<trkpt lat="37.8631177" lon="-1.4350040">
<ele>820</ele>
<time>2017-09-30T14:14:23Z</time>
</trkpt>
<trkpt lat="37.8629744" lon="-1.4353663">
<ele>811</ele>
<time>2017-09-30T14:14:29Z</time>
</trkpt>
<trkpt lat="37.8628410" lon="-1.4357792">
<ele>802</ele>
<time>2017-09-30T14:14:35Z</time>
</trkpt>
<trkpt lat="37.8627003" lon="-1.4361833">
<ele>791</ele>
<time>2017-09-30T14:14:41Z</time>
</trkpt>
<trkpt lat="37.8624531" lon="-1.4363975">
<ele>779</ele>
<time>2017-09-30T14:14:47Z</time>
</trkpt>
<trkpt lat="37.8621635" lon="-1.4364784">
<ele>769</ele>
<time>2017-09-30T14:14:53Z</time>
</trkpt>
<trkpt lat="37.8619497" lon="-1.4366221">
<ele>763</ele>
<time>2017-09-30T14:14:59Z</time>
</trkpt>
<trkpt lat="37.8617737" lon="-1.4366268">
<ele>758</ele>
<time>2017-09-30T14:15:05Z</time>
</trkpt>
<trkpt lat="37.8616482" lon="-1.4367530">
<ele>753</ele>
<time>2017-09-30T14:15:11Z</time>
</trkpt>
<trkpt lat="37.8615173" lon="-1.4369256">
<ele>747</ele>
<time>2017-09-30T14:15:17Z</time>
</trkpt>
<trkpt lat="37.8614179" lon="-1.4371061">
<ele>743</ele>
<time>2017-09-30T14:15:23Z</time>
</trkpt>
<trkpt lat="37.8612401" lon="-1.4371811">
<ele>738</ele>
<time>2017-09-30T14:15:29Z</time>
</trkpt>
<trkpt lat="37.8610569" lon="-1.4371319">
<ele>738</ele>
<time>2017-09-30T14:15:35Z</time>
</trkpt>
<trkpt lat="37.8609215" lon="-1.4370348">
<ele>737</ele>
<time>2017-09-30T14:15:41Z</time>
</trkpt>
<trkpt lat="37.8608118" lon="-1.4370530">
<ele>735</ele>
<time>2017-09-30T14:15:47Z</time>
</trkpt>
<trkpt lat="37.8606899" lon="-1.4369409">
<ele>732</ele>
<time>2017-09-30T14:15:53Z</time>
</trkpt>
<trkpt lat="37.8606839" lon="-1.4366694">
<ele>729</ele>
<time>2017-09-30T14:15:59Z</time>
</trkpt>
<trkpt lat="37.8605960" lon="-1.4363554">
<ele>721</ele>
<time>2017-09-30T14:16:05Z</time>
</trkpt>
<trkpt lat="37.8605063" lon="-1.4359940">
<ele>714</ele>
<time>2017-09-30T14:16:11Z</time>
</trkpt>
<trkpt lat="37.8605653" lon="-1.4354764">
<ele>709</ele>
<time>2017-09-30T14:16:17Z</time>
</trkpt>
<trkpt lat="37.8607039" lon="-1.4349812">
<ele>704</ele>
<time>2017-09-30T14:16:23Z</time>
</trkpt>
<trkpt lat="37.8608274" lon="-1.4343593">
<ele>699</ele>
<time>2017-09-30T14:16:29Z</time>
</trkpt>
<trkpt lat="37.8609764" lon="-1.4338753">
<ele>692</ele>
<time>2017-09-30T14:16:35Z</time>
</trkpt>
<trkpt lat="37.8609074" lon="-1.4333860">
<ele>690</ele>
<time>2017-09-30T14:16:41Z</time>
</trkpt>
<trkpt lat="37.8607009" lon="-1.4331109">
<ele>693</ele>
<time>2017-09-30T14:16:47Z</time>
</trkpt>
<trkpt lat="37.8604652" lon="-1.4331122">
<ele>696</ele>
<time>2017-09-30T14:16:53Z</time>
</trkpt>
<trkpt lat="37.8603224" lon="-1.4334470">
<ele>698</ele>
<time>2017-09-30T14:16:59Z</time>
</trkpt>
<trkpt lat="37.8605499" lon="-1.4339154">
<ele>694</ele>
<time>2017-09-30T14:17:05Z</time>
</trkpt>
<trkpt lat="37.8611279" lon="-1.4337741">
<ele>690</ele>
<time>2017-09-30T14:17:11Z</time>
</trkpt>
<trkpt lat="37.8612942" lon="-1.4332588">
<ele>690</ele>
<time>2017-09-30T14:17:17Z</time>
</trkpt>
<trkpt lat="37.8613075" lon="-1.4328435">
<ele>689</ele>
<time>2017-09-30T14:17:23Z</time>
</trkpt>
<trkpt lat="37.8612764" lon="-1.4325888">
<ele>689</ele>
<time>2017-09-30T14:17:29Z</time>
</trkpt>
<trkpt lat="37.8611801" lon="-1.4323821">
<ele>689</ele>
<time>2017-09-30T14:17:35Z</time>
</trkpt>
<trkpt lat="37.8609534" lon="-1.4324985">
<ele>691</ele>
<time>2017-09-30T14:17:41Z</time>
</trkpt>
<trkpt lat="37.8608235" lon="-1.4328167">
<ele>693</ele>
<time>2017-09-30T14:17:47Z</time>
</trkpt>
<trkpt lat="37.8610059" lon="-1.4333443">
<ele>694</ele>
<time>2017-09-30T14:17:53Z</time>
</trkpt>
<trkpt lat="37.8616158" lon="-1.4334288">
<ele>694</ele>
<time>2017-09-30T14:17:59Z</time>
</trkpt>
<trkpt lat="37.8618772" lon="-1.4329756">
<ele>694</ele>
<time>2017-09-30T14:18:05Z</time>
</trkpt>
<trkpt lat="37.8618085" lon="-1.4325255">
<ele>697</ele>
<time>2017-09-30T14:18:11Z</time>
</trkpt>
<trkpt lat="37.8616767" lon="-1.4322280">
<ele>699</ele>
<time>2017-09-30T14:18:17Z</time>
</trkpt>
<trkpt lat="37.8614499" lon="-1.4320954">
<ele>701</ele>
<time>2017-09-30T14:18:23Z</time>
</trkpt>
<trkpt lat="37.8611983" lon="-1.4321347">
<ele>704</ele>
<time>2017-09-30T14:18:29Z</time>
</trkpt>
<trkpt lat="37.8610355" lon="-1.4322951">
<ele>706</ele>
<time>2017-09-30T14:18:35Z</time>
</trkpt>
<trkpt lat="37.8608918" lon="-1.4325160">
<ele>709</ele>
<time>2017-09-30T14:18:41Z</time>
</trkpt>
<trkpt lat="37.8608300" lon="-1.4329390">
<ele>709</ele>
<time>2017-09-30T14:18:47Z</time>
</trkpt>
<trkpt lat="37.8611621" lon="-1.4334656">
<ele>708</ele>
<time>2017-09-30T14:18:53Z</time>
</trkpt>
<trkpt lat="37.8619519" lon="-1.4328341">
<ele>708</ele>
<time>2017-09-30T14:19:05Z</time>
</trkpt>
<trkpt lat="37.8618130" lon="-1.4324773">
<ele>709</ele>
<time>2017-09-30T14:19:11Z</time>
</trkpt>
<trkpt lat="37.8615502" lon="-1.4318968">
<ele>713</ele>
<time>2017-09-30T14:19:23Z</time>
</trkpt>
<trkpt lat="37.8613348" lon="-1.4317400">
<ele>716</ele>
<time>2017-09-30T14:19:29Z</time>
</trkpt>
<trkpt lat="37.8609939" lon="-1.4318209">
<ele>720</ele>
<time>2017-09-30T14:19:35Z</time>
</trkpt>
<trkpt lat="37.8606991" lon="-1.4318859">
<ele>719</ele>
<time>2017-09-30T14:19:41Z</time>
</trkpt>
<trkpt lat="37.8605329" lon="-1.4315797">
<ele>718</ele>
<time>2017-09-30T14:19:47Z</time>
</trkpt>
<trkpt lat="37.8606578" lon="-1.4308702">
<ele>723</ele>
<time>2017-09-30T14:19:59Z</time>
</trkpt>
<trkpt lat="37.8608328" lon="-1.4304243">
<ele>727</ele>
<time>2017-09-30T14:20:05Z</time>
</trkpt>
<trkpt lat="37.8608203" lon="-1.4299614">
<ele>733</ele>
<time>2017-09-30T14:20:11Z</time>
</trkpt>
<trkpt lat="37.8606598" lon="-1.4296273">
<ele>740</ele>
<time>2017-09-30T14:20:17Z</time>
</trkpt>
<trkpt lat="37.8603676" lon="-1.4295845">
<ele>746</ele>
<time>2017-09-30T14:20:23Z</time>
</trkpt>
<trkpt lat="37.8602488" lon="-1.4299702">
<ele>749</ele>
<time>2017-09-30T14:20:29Z</time>
</trkpt>
<trkpt lat="37.8603767" lon="-1.4305171">
<ele>750</ele>
<time>2017-09-30T14:20:35Z</time>
</trkpt>
<trkpt lat="37.8608840" lon="-1.4310231">
<ele>750</ele>
<time>2017-09-30T14:20:41Z</time>
</trkpt>
<trkpt lat="37.8615347" lon="-1.4312894">
<ele>753</ele>
<time>2017-09-30T14:20:47Z</time>
</trkpt>
<trkpt lat="37.8620997" lon="-1.4309927">
<ele>755</ele>
<time>2017-09-30T14:20:53Z</time>
</trkpt>
<trkpt lat="37.8622463" lon="-1.4305112">
<ele>761</ele>
<time>2017-09-30T14:20:59Z</time>
</trkpt>
<trkpt lat="37.8620825" lon="-1.4302259">
<ele>766</ele>
<time>2017-09-30T14:21:05Z</time>
</trkpt>
<trkpt lat="37.8619555" lon="-1.4298503">
<ele>772</ele>
<time>2017-09-30T14:21:11Z</time>
</trkpt>
<trkpt lat="37.8618429" lon="-1.4295392">
<ele>775</ele>
<time>2017-09-30T14:21:17Z</time>
</trkpt>
<trkpt lat="37.8612" lon="-1.42931">
<ele>790</ele>
<time>2017-09-30T14:21:35Z</time>
</trkpt>
<trkpt lat="37.8609" lon="-1.42945">
<ele>802</ele>
<time>2017-09-30T14:21:41Z</time>
</trkpt>
<trkpt lat="37.8607" lon="-1.42957">
<ele>816</ele>
<time>2017-09-30T14:21:47Z</time>
</trkpt>
<trkpt lat="37.8604320" lon="-1.4299248">
<ele>830</ele>
<time>2017-09-30T14:21:53Z</time>
</trkpt>
<trkpt lat="37.8604693" lon="-1.4304280">
<ele>841</ele>
<time>2017-09-30T14:21:59Z</time>
</trkpt>
<trkpt lat="37.8609284" lon="-1.4309596">
<ele>848</ele>
<time>2017-09-30T14:22:05Z</time>
</trkpt>
<trkpt lat="37.8615752" lon="-1.4309318">
<ele>854</ele>
<time>2017-09-30T14:22:11Z</time>
</trkpt>
<trkpt lat="37.8619070" lon="-1.4306280">
<ele>867</ele>
<time>2017-09-30T14:22:17Z</time>
</trkpt>
<trkpt lat="37.8620068" lon="-1.4301729">
<ele>877</ele>
<time>2017-09-30T14:22:23Z</time>
</trkpt>
<trkpt lat="37.8619908" lon="-1.4298328">
<ele>881</ele>
<time>2017-09-30T14:22:29Z</time>
</trkpt>
<trkpt lat="37.8618225" lon="-1.4296422">
<ele>884</ele>
<time>2017-09-30T14:22:35Z</time>
</trkpt>
<trkpt lat="37.8616403" lon="-1.4296551">
<ele>896</ele>
<time>2017-09-30T14:22:41Z</time>
</trkpt>
<trkpt lat="37.8614362" lon="-1.4299346">
<ele>915</ele>
<time>2017-09-30T14:22:47Z</time>
</trkpt>
<trkpt lat="37.8612296" lon="-1.4301764">
<ele>930</ele>
<time>2017-09-30T14:22:53Z</time>
</trkpt>
<trkpt lat="37.8609508" lon="-1.4303343">
<ele>946</ele>
<time>2017-09-30T14:22:59Z</time>
</trkpt>
<trkpt lat="37.8606646" lon="-1.4304399">
<ele>959</ele>
<time>2017-09-30T14:23:05Z</time>
</trkpt>
<trkpt lat="37.8604400" lon="-1.4305740">
<ele>964</ele>
<time>2017-09-30T14:23:11Z</time>
</trkpt>
<trkpt lat="37.8603003" lon="-1.4303990">
<ele>963</ele>
<time>2017-09-30T14:23:17Z</time>
</trkpt>
<trkpt lat="37.8605068" lon="-1.4298038">
<ele>961</ele>
<time>2017-09-30T14:23:23Z</time>
</trkpt>
<trkpt lat="37.8608006" lon="-1.4291665">
<ele>960</ele>
<time>2017-09-30T14:23:29Z</time>
</trkpt>
<trkpt lat="37.8610222" lon="-1.4285710">
<ele>964</ele>
<time>2017-09-30T14:23:35Z</time>
</trkpt>
<trkpt lat="37.8611961" lon="-1.4279596">
<ele>969</ele>
<time>2017-09-30T14:23:41Z</time>
</trkpt>
<trkpt lat="37.8614171" lon="-1.4273460">
<ele>972</ele>
<time>2017-09-30T14:23:47Z</time>
</trkpt>
<trkpt lat="37.8615809" lon="-1.4267426">
<ele>977</ele>
<time>2017-09-30T14:23:53Z</time>
</trkpt>
<trkpt lat="37.8617962" lon="-1.4261612">
<ele>980</ele>
<time>2017-09-30T14:23:59Z</time>
</trkpt>
<trkpt lat="37.8620249" lon="-1.4255601">
<ele>985</ele>
<time>2017-09-30T14:24:05Z</time>
</trkpt>
<trkpt lat="37.8623244" lon="-1.4249914">
<ele>988</ele>
<time>2017-09-30T14:24:11Z</time>
</trkpt>
<trkpt lat="37.8624267" lon="-1.4244559">
<ele>991</ele>
<time>2017-09-30T14:24:17Z</time>
</trkpt>
<trkpt lat="37.8623056" lon="-1.4240909">
<ele>993</ele>
<time>2017-09-30T14:24:23Z</time>
</trkpt>
<trkpt lat="37.8620699" lon="-1.4241312">
<ele>996</ele>
<time>2017-09-30T14:24:29Z</time>
</trkpt>
<trkpt lat="37.8620513" lon="-1.4244911">
<ele>998</ele>
<time>2017-09-30T14:24:35Z</time>
</trkpt>
<trkpt lat="37.8623558" lon="-1.4250334">
<ele>1000</ele>
<time>2017-09-30T14:24:41Z</time>
</trkpt>
<trkpt lat="37.8629838" lon="-1.4252101">
<ele>1002</ele>
<time>2017-09-30T14:24:47Z</time>
</trkpt>
<trkpt lat="37.8637254" lon="-1.4242818">
<ele>1008</ele>
<time>2017-09-30T14:24:59Z</time>
</trkpt>
<trkpt lat="37.8636361" lon="-1.4238591">
<ele>1010</ele>
<time>2017-09-30T14:25:05Z</time>
</trkpt>
<trkpt lat="37.8632615" lon="-1.4234855">
<ele>1011</ele>
<time>2017-09-30T14:25:17Z</time>
</trkpt>
<trkpt lat="37.8630542" lon="-1.4235203">
<ele>1009</ele>
<time>2017-09-30T14:25:22Z</time>
</trkpt>
<trkpt lat="37.8628348" lon="-1.4236811">
<ele>1007</ele>
<time>2017-09-30T14:25:28Z</time>
</trkpt>
<trkpt lat="37.8626544" lon="-1.4238935">
<ele>1006</ele>
<time>2017-09-30T14:25:34Z</time>
</trkpt>
<trkpt lat="37.8623910" lon="-1.4241242">
<ele>999</ele>
<time>2017-09-30T14:25:40Z</time>
</trkpt>
<trkpt lat="37.8621401" lon="-1.4243018">
<ele>998</ele>
<time>2017-09-30T14:25:46Z</time>
</trkpt>
<trkpt lat="37.8619666" lon="-1.4245105">
<ele>997</ele>
<time>2017-09-30T14:25:52Z</time>
</trkpt>
<trkpt lat="37.8618356" lon="-1.4247666">
<ele>996</ele>
<time>2017-09-30T14:25:58Z</time>
</trkpt>
<trkpt lat="37.8616585" lon="-1.4250543">
<ele>992</ele>
<time>2017-09-30T14:26:04Z</time>
</trkpt>
<trkpt lat="37.8615131" lon="-1.4253738">
<ele>987</ele>
<time>2017-09-30T14:26:10Z</time>
</trkpt>
<trkpt lat="37.8614179" lon="-1.4257089">
<ele>981</ele>
<time>2017-09-30T14:26:16Z</time>
</trkpt>
<trkpt lat="37.8612859" lon="-1.4260068">
<ele>968</ele>
<time>2017-09-30T14:26:22Z</time>
</trkpt>
<trkpt lat="37.8611036" lon="-1.4261644">
<ele>951</ele>
<time>2017-09-30T14:26:28Z</time>
</trkpt>
<trkpt lat="37.8608810" lon="-1.4263227">
<ele>935</ele>
<time>2017-09-30T14:26:34Z</time>
</trkpt>
<trkpt lat="37.8606989" lon="-1.4265714">
<ele>915</ele>
<time>2017-09-30T14:26:40Z</time>
</trkpt>
<trkpt lat="37.8605665" lon="-1.4269190">
<ele>904</ele>
<time>2017-09-30T14:26:46Z</time>
</trkpt>
<trkpt lat="37.8604653" lon="-1.4271851">
<ele>900</ele>
<time>2017-09-30T14:26:52Z</time>
</trkpt>
<trkpt lat="37.8604357" lon="-1.4275382">
<ele>897</ele>
<time>2017-09-30T14:26:58Z</time>
</trkpt>
<trkpt lat="37.8603847" lon="-1.4278212">
<ele>896</ele>
<time>2017-09-30T14:27:04Z</time>
</trkpt>
<trkpt lat="37.8602807" lon="-1.4281497">
<ele>896</ele>
<time>2017-09-30T14:27:10Z</time>
</trkpt>
<trkpt lat="37.8602643" lon="-1.4285109">
<ele>895</ele>
<time>2017-09-30T14:27:16Z</time>
</trkpt>
<trkpt lat="37.8601852" lon="-1.4287438">
<ele>897</ele>
<time>2017-09-30T14:27:22Z</time>
</trkpt>
<trkpt lat="37.8600620" lon="-1.4290236">
<ele>900</ele>
<time>2017-09-30T14:27:28Z</time>
</trkpt>
<trkpt lat="37.8596627" lon="-1.4289110">
<ele>902</ele>
<time>2017-09-30T14:27:34Z</time>
</trkpt>
<trkpt lat="37.8593374" lon="-1.4284861">
<ele>906</ele>
<time>2017-09-30T14:27:40Z</time>
</trkpt>
<trkpt lat="37.8591887" lon="-1.4280912">
<ele>911</ele>
<time>2017-09-30T14:27:46Z</time>
</trkpt>
<trkpt lat="37.8592233" lon="-1.4275610">
<ele>912</ele>
<time>2017-09-30T14:27:52Z</time>
</trkpt>
<trkpt lat="37.8596816" lon="-1.4270846">
<ele>908</ele>
<time>2017-09-30T14:27:58Z</time>
</trkpt>
<trkpt lat="37.8602912" lon="-1.4272479">
<ele>907</ele>
<time>2017-09-30T14:28:04Z</time>
</trkpt>
<trkpt lat="37.8605776" lon="-1.4275842">
<ele>909</ele>
<time>2017-09-30T14:28:10Z</time>
</trkpt>
<trkpt lat="37.8605740" lon="-1.4278881">
<ele>907</ele>
<time>2017-09-30T14:28:16Z</time>
</trkpt>
<trkpt lat="37.8604002" lon="-1.4281197">
<ele>905</ele>
<time>2017-09-30T14:28:22Z</time>
</trkpt>
<trkpt lat="37.8601797" lon="-1.4282893">
<ele>908</ele>
<time>2017-09-30T14:28:28Z</time>
</trkpt>
<trkpt lat="37.8600095" lon="-1.4283651">
<ele>908</ele>
<time>2017-09-30T14:28:34Z</time>
</trkpt>
<trkpt lat="37.8599335" lon="-1.4280456">
<ele>899</ele>
<time>2017-09-30T14:28:40Z</time>
</trkpt>
<trkpt lat="37.8602247" lon="-1.4274769">
<ele>888</ele>
<time>2017-09-30T14:28:46Z</time>
</trkpt>
<trkpt lat="37.8608884" lon="-1.4273417">
<ele>882</ele>
<time>2017-09-30T14:28:52Z</time>
</trkpt>
<trkpt lat="37.8613165" lon="-1.4276140">
<ele>881</ele>
<time>2017-09-30T14:28:58Z</time>
</trkpt>
<trkpt lat="37.8614712" lon="-1.4279932">
<ele>880</ele>
<time>2017-09-30T14:29:04Z</time>
</trkpt>
<trkpt lat="37.8614887" lon="-1.4282945">
<ele>879</ele>
<time>2017-09-30T14:29:10Z</time>
</trkpt>
<trkpt lat="37.8613520" lon="-1.4285130">
<ele>877</ele>
<time>2017-09-30T14:29:16Z</time>
</trkpt>
<trkpt lat="37.8612206" lon="-1.4286036">
<ele>877</ele>
<time>2017-09-30T14:29:22Z</time>
</trkpt>
<trkpt lat="37.8610244" lon="-1.4287255">
<ele>873</ele>
<time>2017-09-30T14:29:28Z</time>
</trkpt>
<trkpt lat="37.8608040" lon="-1.4288118">
<ele>870</ele>
<time>2017-09-30T14:29:34Z</time>
</trkpt>
<trkpt lat="37.8605415" lon="-1.4288831">
<ele>868</ele>
<time>2017-09-30T14:29:40Z</time>
</trkpt>
<trkpt lat="37.8602415" lon="-1.4288597">
<ele>870</ele>
<time>2017-09-30T14:29:46Z</time>
</trkpt>
<trkpt lat="37.8599982" lon="-1.4288364">
<ele>870</ele>
<time>2017-09-30T14:29:52Z</time>
</trkpt>
<trkpt lat="37.8598075" lon="-1.4289773">
<ele>872</ele>
<time>2017-09-30T14:29:58Z</time>
</trkpt>
<trkpt lat="37.8596731" lon="-1.4289175">
<ele>872</ele>
<time>2017-09-30T14:30:04Z</time>
</trkpt>
<trkpt lat="37.8594394" lon="-1.4288040">
<ele>868</ele>
<time>2017-09-30T14:30:10Z</time>
</trkpt>
<trkpt lat="37.8591927" lon="-1.4287035">
<ele>865</ele>
<time>2017-09-30T14:30:16Z</time>
</trkpt>
<trkpt lat="37.8590160" lon="-1.4286134">
<ele>863</ele>
<time>2017-09-30T14:30:22Z</time>
</trkpt>
<trkpt lat="37.8587713" lon="-1.4285081">
<ele>862</ele>
<time>2017-09-30T14:30:28Z</time>
</trkpt>
<trkpt lat="37.8585331" lon="-1.4284681">
<ele>861</ele>
<time>2017-09-30T14:30:34Z</time>
</trkpt>
<trkpt lat="37.8582528" lon="-1.4284117">
<ele>860</ele>
<time>2017-09-30T14:30:40Z</time>
</trkpt>
<trkpt lat="37.8579516" lon="-1.4283367">
<ele>862</ele>
<time>2017-09-30T14:30:46Z</time>
</trkpt>
<trkpt lat="37.8576312" lon="-1.4285397">
<ele>863</ele>
<time>2017-09-30T14:30:52Z</time>
</trkpt>
<trkpt lat="37.8572741" lon="-1.4287871">
<ele>862</ele>
<time>2017-09-30T14:30:58Z</time>
</trkpt>
<trkpt lat="37.8569907" lon="-1.4289503">
<ele>862</ele>
<time>2017-09-30T14:31:04Z</time>
</trkpt>
<trkpt lat="37.8567337" lon="-1.4292237">
<ele>861</ele>
<time>2017-09-30T14:31:10Z</time>
</trkpt>
<trkpt lat="37.8564533" lon="-1.4295639">
<ele>861</ele>
<time>2017-09-30T14:31:16Z</time>
</trkpt>
<trkpt lat="37.8561627" lon="-1.4298661">
<ele>863</ele>
<time>2017-09-30T14:31:22Z</time>
</trkpt>
<trkpt lat="37.8560127" lon="-1.4302217">
<ele>865</ele>
<time>2017-09-30T14:31:28Z</time>
</trkpt>
<trkpt lat="37.8557694" lon="-1.4303903">
<ele>865</ele>
<time>2017-09-30T14:31:34Z</time>
</trkpt>
<trkpt lat="37.8555009" lon="-1.4303117">
<ele>863</ele>
<time>2017-09-30T14:31:40Z</time>
</trkpt>
<trkpt lat="37.8551887" lon="-1.4301813">
<ele>862</ele>
<time>2017-09-30T14:31:46Z</time>
</trkpt>
<trkpt lat="37.8551028" lon="-1.4297860">
<ele>864</ele>
<time>2017-09-30T14:31:52Z</time>
</trkpt>
<trkpt lat="37.8551501" lon="-1.4294688">
<ele>865</ele>
<time>2017-09-30T14:31:58Z</time>
</trkpt>
<trkpt lat="37.8554677" lon="-1.4290989">
<ele>864</ele>
<time>2017-09-30T14:32:04Z</time>
</trkpt>
<trkpt lat="37.8558505" lon="-1.4289265">
<ele>865</ele>
<time>2017-09-30T14:32:10Z</time>
</trkpt>
<trkpt lat="37.8562537" lon="-1.4292583">
<ele>866</ele>
<time>2017-09-30T14:32:16Z</time>
</trkpt>
<trkpt lat="37.8566308" lon="-1.4297770">
<ele>866</ele>
<time>2017-09-30T14:32:22Z</time>
</trkpt>
<trkpt lat="37.8565369" lon="-1.4303587">
<ele>868</ele>
<time>2017-09-30T14:32:28Z</time>
</trkpt>
<trkpt lat="37.8562754" lon="-1.4307271">
<ele>871</ele>
<time>2017-09-30T14:32:34Z</time>
</trkpt>
<trkpt lat="37.8560182" lon="-1.4309031">
<ele>872</ele>
<time>2017-09-30T14:32:40Z</time>
</trkpt>
<trkpt lat="37.8557429" lon="-1.4310228">
<ele>871</ele>
<time>2017-09-30T14:32:46Z</time>
</trkpt>
<trkpt lat="37.8554173" lon="-1.4311460">
<ele>868</ele>
<time>2017-09-30T14:32:52Z</time>
</trkpt>
<trkpt lat="37.8551112" lon="-1.4311910">
<ele>865</ele>
<time>2017-09-30T14:32:58Z</time>
</trkpt>
<trkpt lat="37.8547727" lon="-1.4313034">
<ele>860</ele>
<time>2017-09-30T14:33:04Z</time>
</trkpt>
<trkpt lat="37.8543851" lon="-1.4311936">
<ele>856</ele>
<time>2017-09-30T14:33:10Z</time>
</trkpt>
<trkpt lat="37.8540006" lon="-1.4309150">
<ele>851</ele>
<time>2017-09-30T14:33:16Z</time>
</trkpt>
<trkpt lat="37.8536967" lon="-1.4306552">
<ele>847</ele>
<time>2017-09-30T14:33:22Z</time>
</trkpt>
<trkpt lat="37.8533513" lon="-1.4304463">
<ele>844</ele>
<time>2017-09-30T14:33:28Z</time>
</trkpt>
<trkpt lat="37.8530688" lon="-1.4304222">
<ele>838</ele>
<time>2017-09-30T14:33:34Z</time>
</trkpt>
<trkpt lat="37.8527386" lon="-1.4303732">
<ele>831</ele>
<time>2017-09-30T14:33:40Z</time>
</trkpt>
<trkpt lat="37.8523773" lon="-1.4303052">
<ele>824</ele>
<time>2017-09-30T14:33:46Z</time>
</trkpt>
<trkpt lat="37.8520272" lon="-1.4304123">
<ele>820</ele>
<time>2017-09-30T14:33:52Z</time>
</trkpt>
<trkpt lat="37.8517092" lon="-1.4305102">
<ele>814</ele>
<time>2017-09-30T14:33:58Z</time>
</trkpt>
<trkpt lat="37.8514700" lon="-1.4307497">
<ele>811</ele>
<time>2017-09-30T14:34:04Z</time>
</trkpt>
<trkpt lat="37.8512682" lon="-1.4310435">
<ele>806</ele>
<time>2017-09-30T14:34:10Z</time>
</trkpt>
<trkpt lat="37.8512818" lon="-1.4314976">
<ele>786</ele>
<time>2017-09-30T14:34:16Z</time>
</trkpt>
<trkpt lat="37.8513452" lon="-1.4320849">
<ele>764</ele>
<time>2017-09-30T14:34:22Z</time>
</trkpt>
<trkpt lat="37.8513458" lon="-1.4326558">
<ele>754</ele>
<time>2017-09-30T14:34:28Z</time>
</trkpt>
<trkpt lat="37.8513831" lon="-1.4332062">
<ele>745</ele>
<time>2017-09-30T14:34:34Z</time>
</trkpt>
<trkpt lat="37.8516160" lon="-1.4337924">
<ele>732</ele>
<time>2017-09-30T14:34:40Z</time>
</trkpt>
<trkpt lat="37.8518719" lon="-1.4343102">
<ele>723</ele>
<time>2017-09-30T14:34:46Z</time>
</trkpt>
<trkpt lat="37.8520856" lon="-1.4348695">
<ele>715</ele>
<time>2017-09-30T14:34:52Z</time>
</trkpt>
<trkpt lat="37.8523855" lon="-1.4353866">
<ele>710</ele>
<time>2017-09-30T14:34:58Z</time>
</trkpt>
<trkpt lat="37.8527450" lon="-1.4358250">
<ele>710</ele>
<time>2017-09-30T14:35:04Z</time>
</trkpt>
<trkpt lat="37.8532682" lon="-1.4361020">
<ele>712</ele>
<time>2017-09-30T14:35:10Z</time>
</trkpt>
<trkpt lat="37.8538333" lon="-1.4358491">
<ele>712</ele>
<time>2017-09-30T14:35:16Z</time>
</trkpt>
<trkpt lat="37.8540466" lon="-1.4352809">
<ele>709</ele>
<time>2017-09-30T14:35:22Z</time>
</trkpt>
<trkpt lat="37.8538608" lon="-1.4352462">
<ele>705</ele>
<time>2017-09-30T14:35:28Z</time>
</trkpt>
<trkpt lat="37.8536862" lon="-1.4354166">
<ele>702</ele>
<time>2017-09-30T14:35:34Z</time>
</trkpt>
<trkpt lat="37.8534969" lon="-1.4355708">
<ele>702</ele>
<time>2017-09-30T14:35:40Z</time>
</trkpt>
<trkpt lat="37.8533018" lon="-1.4356799">
<ele>703</ele>
<time>2017-09-30T14:35:46Z</time>
</trkpt>
<trkpt lat="37.8530991" lon="-1.4357773">
<ele>701</ele>
<time>2017-09-30T14:35:52Z</time>
</trkpt>
<trkpt lat="37.8530678" lon="-1.4362143">
<ele>697</ele>
<time>2017-09-30T14:35:58Z</time>
</trkpt>
<trkpt lat="37.8532671" lon="-1.4367599">
<ele>692</ele>
<time>2017-09-30T14:36:04Z</time>
</trkpt>
<trkpt lat="37.8535886" lon="-1.4372720">
<ele>680</ele>
<time>2017-09-30T14:36:10Z</time>
</trkpt>
<trkpt lat="37.8538837" lon="-1.4377987">
<ele>673</ele>
<time>2017-09-30T14:36:16Z</time>
</trkpt>
<trkpt lat="37.8541193" lon="-1.4383898">
<ele>668</ele>
<time>2017-09-30T14:36:22Z</time>
</trkpt>
<trkpt lat="37.8542474" lon="-1.4389647">
<ele>664</ele>
<time>2017-09-30T14:36:28Z</time>
</trkpt>
<trkpt lat="37.8543248" lon="-1.4394739">
<ele>662</ele>
<time>2017-09-30T14:36:34Z</time>
</trkpt>
<trkpt lat="37.8542409" lon="-1.4399705">
<ele>662</ele>
<time>2017-09-30T14:36:40Z</time>
</trkpt>
<trkpt lat="37.8541711" lon="-1.4403806">
<ele>663</ele>
<time>2017-09-30T14:36:46Z</time>
</trkpt>
<trkpt lat="37.8540257" lon="-1.4407256">
<ele>662</ele>
<time>2017-09-30T14:36:52Z</time>
</trkpt>
<trkpt lat="37.8539168" lon="-1.4409932">
<ele>662</ele>
<time>2017-09-30T14:36:58Z</time>
</trkpt>
<trkpt lat="37.8537460" lon="-1.4411286">
<ele>663</ele>
<time>2017-09-30T14:37:04Z</time>
</trkpt>
<trkpt lat="37.8534864" lon="-1.4410719">
<ele>662</ele>
<time>2017-09-30T14:37:10Z</time>
</trkpt>
<trkpt lat="37.8532768" lon="-1.4407374">
<ele>662</ele>
<time>2017-09-30T14:37:16Z</time>
</trkpt>
<trkpt lat="37.8532996" lon="-1.4402756">
<ele>659</ele>
<time>2017-09-30T14:37:22Z</time>
</trkpt>
<trkpt lat="37.8537838" lon="-1.4399501">
<ele>654</ele>
<time>2017-09-30T14:37:29Z</time>
</trkpt>
<trkpt lat="37.8542715" lon="-1.4403972">
<ele>652</ele>
<time>2017-09-30T14:37:35Z</time>
</trkpt>
<trkpt lat="37.8544384" lon="-1.4409908">
<ele>652</ele>
<time>2017-09-30T14:37:41Z</time>
</trkpt>
<trkpt lat="37.8544510" lon="-1.4415331">
<ele>651</ele>
<time>2017-09-30T14:37:47Z</time>
</trkpt>
<trkpt lat="37.8542461" lon="-1.4419157">
<ele>649</ele>
<time>2017-09-30T14:37:53Z</time>
</trkpt>
<trkpt lat="37.8539418" lon="-1.4419719">
<ele>647</ele>
<time>2017-09-30T14:37:59Z</time>
</trkpt>
<trkpt lat="37.8537574" lon="-1.4417745">
<ele>642</ele>
<time>2017-09-30T14:38:05Z</time>
</trkpt>
<trkpt lat="37.8539089" lon="-1.4413496">
<ele>636</ele>
<time>2017-09-30T14:38:11Z</time>
</trkpt>
<trkpt lat="37.8545242" lon="-1.4412796">
<ele>633</ele>
<time>2017-09-30T14:38:17Z</time>
</trkpt>
<trkpt lat="37.8550545" lon="-1.4417100">
<ele>631</ele>
<time>2017-09-30T14:38:23Z</time>
</trkpt>
<trkpt lat="37.8552019" lon="-1.4423068">
<ele>629</ele>
<time>2017-09-30T14:38:29Z</time>
</trkpt>
<trkpt lat="37.8552216" lon="-1.4429079">
<ele>628</ele>
<time>2017-09-30T14:38:35Z</time>
</trkpt>
<trkpt lat="37.8550956" lon="-1.4434733">
<ele>626</ele>
<time>2017-09-30T14:38:41Z</time>
</trkpt>
<trkpt lat="37.8549289" lon="-1.4440239">
<ele>624</ele>
<time>2017-09-30T14:38:47Z</time>
</trkpt>
<trkpt lat="37.8546217" lon="-1.4442233">
<ele>623</ele>
<time>2017-09-30T14:38:53Z</time>
</trkpt>
<trkpt lat="37.8544626" lon="-1.4440135">
<ele>619</ele>
<time>2017-09-30T14:38:59Z</time>
</trkpt>
<trkpt lat="37.8547924" lon="-1.4435931">
<ele>616</ele>
<time>2017-09-30T14:39:05Z</time>
</trkpt>
<trkpt lat="37.8554065" lon="-1.4435865">
<ele>610</ele>
<time>2017-09-30T14:39:11Z</time>
</trkpt>
<trkpt lat="37.8560253" lon="-1.4435682">
<ele>598</ele>
<time>2017-09-30T14:39:17Z</time>
</trkpt>
<trkpt lat="37.8566327" lon="-1.4434756">
<ele>588</ele>
<time>2017-09-30T14:39:23Z</time>
</trkpt>
<trkpt lat="37.8571040" lon="-1.4431622">
<ele>584</ele>
<time>2017-09-30T14:39:29Z</time>
</trkpt>
<trkpt lat="37.8574818" lon="-1.4427038">
<ele>581</ele>
<time>2017-09-30T14:39:35Z</time>
</trkpt>
<trkpt lat="37.8578242" lon="-1.4422289">
<ele>577</ele>
<time>2017-09-30T14:39:41Z</time>
</trkpt>
<trkpt lat="37.8584041" lon="-1.4418721">
<ele>576</ele>
<time>2017-09-30T14:39:47Z</time>
</trkpt>
<trkpt lat="37.8586757" lon="-1.4415043">
<ele>575</ele>
<time>2017-09-30T14:39:53Z</time>
</trkpt>
<trkpt lat="37.8587079" lon="-1.4413622">
<ele>575</ele>
<time>2017-09-30T14:39:59Z</time>
</trkpt>
<trkpt lat="37.8586635" lon="-1.4413366">
<ele>576</ele>
<time>2017-09-30T14:40:05Z</time>
</trkpt>
<trkpt lat="37.8585722" lon="-1.4412433">
<ele>575</ele>
<time>2017-09-30T14:40:11Z</time>
</trkpt>
<trkpt lat="37.8585169" lon="-1.4411089">
<ele>575</ele>
<time>2017-09-30T14:40:17Z</time>
</trkpt>
<trkpt lat="37.8584362" lon="-1.4409053">
<ele>574</ele>
<time>2017-09-30T14:40:23Z</time>
</trkpt>
<trkpt lat="37.8584299" lon="-1.4408490">
<ele>574</ele>
<time>2017-09-30T14:40:29Z</time>
</trkpt>
<trkpt lat="37.8582808" lon="-1.4409727">
<ele>572</ele>
<time>2017-09-30T14:40:35Z</time>
</trkpt>
<trkpt lat="37.8581382" lon="-1.4411391">
<ele>572</ele>
<time>2017-09-30T14:40:41Z</time>
</trkpt>
<trkpt lat="37.8580310" lon="-1.4414470">
<ele>569</ele>
<time>2017-09-30T14:40:47Z</time>
</trkpt>
<trkpt lat="37.8579919" lon="-1.4419237">
<ele>569</ele>
<time>2017-09-30T14:40:53Z</time>
</trkpt>
<trkpt lat="37.8578776" lon="-1.4421371">
<ele>570</ele>
<time>2017-09-30T14:40:59Z</time>
</trkpt>
<trkpt lat="37.8576595" lon="-1.4422130">
<ele>568</ele>
<time>2017-09-30T14:41:05Z</time>
</trkpt>
<trkpt lat="37.8575308" lon="-1.4420333">
<ele>566</ele>
<time>2017-09-30T14:41:11Z</time>
</trkpt>
<trkpt lat="37.8579609" lon="-1.4416223">
<ele>564</ele>
<time>2017-09-30T14:41:17Z</time>
</trkpt>
<trkpt lat="37.8585378" lon="-1.4413146">
<ele>563</ele>
<time>2017-09-30T14:41:23Z</time>
</trkpt>
<trkpt lat="37.8590149" lon="-1.4408637">
<ele>565</ele>
<time>2017-09-30T14:41:29Z</time>
</trkpt>
<trkpt lat="37.8595180" lon="-1.4403927">
<ele>566</ele>
<time>2017-09-30T14:41:35Z</time>
</trkpt>
<trkpt lat="37.8599485" lon="-1.4400212">
<ele>568</ele>
<time>2017-09-30T14:41:41Z</time>
</trkpt>
<trkpt lat="37.8603067" lon="-1.4395621">
<ele>571</ele>
<time>2017-09-30T14:41:47Z</time>
</trkpt>
<trkpt lat="37.8606364" lon="-1.4390699">
<ele>576</ele>
<time>2017-09-30T14:41:53Z</time>
</trkpt>
<trkpt lat="37.8609492" lon="-1.4385814">
<ele>581</ele>
<time>2017-09-30T14:41:59Z</time>
</trkpt>
<trkpt lat="37.8611567" lon="-1.4381194">
<ele>586</ele>
<time>2017-09-30T14:42:05Z</time>
</trkpt>
<trkpt lat="37.8613035" lon="-1.4376458">
<ele>591</ele>
<time>2017-09-30T14:42:11Z</time>
</trkpt>
<trkpt lat="37.8613293" lon="-1.4373236">
<ele>597</ele>
<time>2017-09-30T14:42:17Z</time>
</trkpt>
<trkpt lat="37.8612858" lon="-1.4372659">
<ele>600</ele>
<time>2017-09-30T14:42:23Z</time>
</trkpt>
<trkpt lat="37.8611589" lon="-1.4372112">
<ele>603</ele>
<time>2017-09-30T14:42:29Z</time>
</trkpt>
<trkpt lat="37.8609418" lon="-1.4371274">
<ele>614</ele>
<time>2017-09-30T14:42:35Z</time>
</trkpt>
<trkpt lat="37.8607812" lon="-1.4370427">
<ele>610</ele>
<time>2017-09-30T14:42:41Z</time>
</trkpt>
<trkpt lat="37.8606167" lon="-1.4374572">
<ele>604</ele>
<time>2017-09-30T14:42:47Z</time>
</trkpt>
<trkpt lat="37.8604456" lon="-1.4379133">
<ele>600</ele>
<time>2017-09-30T14:42:53Z</time>
</trkpt>
<trkpt lat="37.8602986" lon="-1.4382717">
<ele>598</ele>
<time>2017-09-30T14:42:59Z</time>
</trkpt>
<trkpt lat="37.8601273" lon="-1.4384297">
<ele>599</ele>
<time>2017-09-30T14:43:05Z</time>
</trkpt>
<trkpt lat="37.8599545" lon="-1.4384291">
<ele>600</ele>
<time>2017-09-30T14:43:11Z</time>
</trkpt>
<trkpt lat="37.8597116" lon="-1.4384515">
<ele>606</ele>
<time>2017-09-30T14:43:17Z</time>
</trkpt>
<trkpt lat="37.8594553" lon="-1.4386137">
<ele>613</ele>
<time>2017-09-30T14:43:23Z</time>
</trkpt>
<trkpt lat="37.8591829" lon="-1.4386161">
<ele>624</ele>
<time>2017-09-30T14:43:29Z</time>
</trkpt>
<trkpt lat="37.8589328" lon="-1.4387489">
<ele>628</ele>
<time>2017-09-30T14:43:35Z</time>
</trkpt>
<trkpt lat="37.8587887" lon="-1.4390036">
<ele>626</ele>
<time>2017-09-30T14:43:41Z</time>
</trkpt>
<trkpt lat="37.8586330" lon="-1.4387029">
<ele>623</ele>
<time>2017-09-30T14:43:47Z</time>
</trkpt>
<trkpt lat="37.8587008" lon="-1.4381275">
<ele>621</ele>
<time>2017-09-30T14:43:53Z</time>
</trkpt>
<trkpt lat="37.8587219" lon="-1.4375226">
<ele>620</ele>
<time>2017-09-30T14:43:59Z</time>
</trkpt>
<trkpt lat="37.8590842" lon="-1.4370381">
<ele>620</ele>
<time>2017-09-30T14:44:05Z</time>
</trkpt>
<trkpt lat="37.8595303" lon="-1.4373044">
<ele>622</ele>
<time>2017-09-30T14:44:11Z</time>
</trkpt>
<trkpt lat="37.8594765" lon="-1.4377309">
<ele>623</ele>
<time>2017-09-30T14:44:17Z</time>
</trkpt>
<trkpt lat="37.8592509" lon="-1.4379718">
<ele>624</ele>
<time>2017-09-30T14:44:23Z</time>
</trkpt>
<trkpt lat="37.8590027" lon="-1.4381324">
<ele>626</ele>
<time>2017-09-30T14:44:29Z</time>
</trkpt>
<trkpt lat="37.8588018" lon="-1.4383553">
<ele>627</ele>
<time>2017-09-30T14:44:35Z</time>
</trkpt>
<trkpt lat="37.8585750" lon="-1.4384784">
<ele>627</ele>
<time>2017-09-30T14:44:41Z</time>
</trkpt>
<trkpt lat="37.8583345" lon="-1.4387635">
<ele>628</ele>
<time>2017-09-30T14:44:47Z</time>
</trkpt>
<trkpt lat="37.8580655" lon="-1.4389534">
<ele>629</ele>
<time>2017-09-30T14:44:53Z</time>
</trkpt>
<trkpt lat="37.8576977" lon="-1.4391231">
<ele>627</ele>
<time>2017-09-30T14:44:59Z</time>
</trkpt>
<trkpt lat="37.8575221" lon="-1.4392063">
<ele>626</ele>
<time>2017-09-30T14:45:05Z</time>
</trkpt>
<trkpt lat="37.8573760" lon="-1.4390584">
<ele>626</ele>
<time>2017-09-30T14:45:11Z</time>
</trkpt>
<trkpt lat="37.8572112" lon="-1.4389591">
<ele>626</ele>
<time>2017-09-30T14:45:17Z</time>
</trkpt>
<trkpt lat="37.8569823" lon="-1.4389482">
<ele>625</ele>
<time>2017-09-30T14:45:23Z</time>
</trkpt>
<trkpt lat="37.8567816" lon="-1.4388756">
<ele>625</ele>
<time>2017-09-30T14:45:29Z</time>
</trkpt>
<trkpt lat="37.8566198" lon="-1.4386087">
<ele>625</ele>
<time>2017-09-30T14:45:35Z</time>
</trkpt>
<trkpt lat="37.8565656" lon="-1.4381680">
<ele>627</ele>
<time>2017-09-30T14:45:41Z</time>
</trkpt>
<trkpt lat="37.8566856" lon="-1.4376691">
<ele>628</ele>
<time>2017-09-30T14:45:47Z</time>
</trkpt>
<trkpt lat="37.8565812" lon="-1.4373711">
<ele>629</ele>
<time>2017-09-30T14:45:53Z</time>
</trkpt>
<trkpt lat="37.8564592" lon="-1.4371407">
<ele>630</ele>
<time>2017-09-30T14:45:59Z</time>
</trkpt>
<trkpt lat="37.8563166" lon="-1.4369437">
<ele>631</ele>
<time>2017-09-30T14:46:05Z</time>
</trkpt>
<trkpt lat="37.8562059" lon="-1.4369636">
<ele>634</ele>
<time>2017-09-30T14:46:11Z</time>
</trkpt>
<trkpt lat="37.8560212" lon="-1.4369670">
<ele>638</ele>
<time>2017-09-30T14:46:17Z</time>
</trkpt>
<trkpt lat="37.8559226" lon="-1.4372791">
<ele>643</ele>
<time>2017-09-30T14:46:23Z</time>
</trkpt>
<trkpt lat="37.8558118" lon="-1.4376329">
<ele>642</ele>
<time>2017-09-30T14:46:29Z</time>
</trkpt>
<trkpt lat="37.8557064" lon="-1.4379584">
<ele>638</ele>
<time>2017-09-30T14:46:35Z</time>
</trkpt>
<trkpt lat="37.8555130" lon="-1.4381195">
<ele>635</ele>
<time>2017-09-30T14:46:41Z</time>
</trkpt>
<trkpt lat="37.8552969" lon="-1.4382298">
<ele>632</ele>
<time>2017-09-30T14:46:47Z</time>
</trkpt>
<trkpt lat="37.8550660" lon="-1.4384230">
<ele>628</ele>
<time>2017-09-30T14:46:53Z</time>
</trkpt>
<trkpt lat="37.8548185" lon="-1.4386620">
<ele>624</ele>
<time>2017-09-30T14:46:59Z</time>
</trkpt>
<trkpt lat="37.8546587" lon="-1.4390329">
<ele>620</ele>
<time>2017-09-30T14:47:05Z</time>
</trkpt>
<trkpt lat="37.8544995" lon="-1.4394238">
<ele>616</ele>
<time>2017-09-30T14:47:11Z</time>
</trkpt>
<trkpt lat="37.8543025" lon="-1.4397652">
<ele>613</ele>
<time>2017-09-30T14:47:17Z</time>
</trkpt>
<trkpt lat="37.8541668" lon="-1.4401311">
<ele>610</ele>
<time>2017-09-30T14:47:23Z</time>
</trkpt>
<trkpt lat="37.8541405" lon="-1.4406406">
<ele>607</ele>
<time>2017-09-30T14:47:29Z</time>
</trkpt>
<trkpt lat="37.8540815" lon="-1.4410832">
<ele>604</ele>
<time>2017-09-30T14:47:35Z</time>
</trkpt>
<trkpt lat="37.8539087" lon="-1.4413845">
<ele>600</ele>
<time>2017-09-30T14:47:41Z</time>
</trkpt>
<trkpt lat="37.8537247" lon="-1.4415787">
<ele>594</ele>
<time>2017-09-30T14:47:47Z</time>
</trkpt>
<trkpt lat="37.8534943" lon="-1.4417273">
<ele>586</ele>
<time>2017-09-30T14:47:53Z</time>
</trkpt>
<trkpt lat="37.8532624" lon="-1.4419974">
<ele>579</ele>
<time>2017-09-30T14:47:59Z</time>
</trkpt>
<trkpt lat="37.8530487" lon="-1.4423242">
<ele>576</ele>
<time>2017-09-30T14:48:05Z</time>
</trkpt>
<trkpt lat="37.8529251" lon="-1.4426099">
<ele>577</ele>
<time>2017-09-30T14:48:11Z</time>
</trkpt>
<trkpt lat="37.8526840" lon="-1.4428415">
<ele>577</ele>
<time>2017-09-30T14:48:17Z</time>
</trkpt>
<trkpt lat="37.8524733" lon="-1.4431219">
<ele>572</ele>
<time>2017-09-30T14:48:23Z</time>
</trkpt>
<trkpt lat="37.8522075" lon="-1.4433420">
<ele>568</ele>
<time>2017-09-30T14:48:29Z</time>
</trkpt>
<trkpt lat="37.8519444" lon="-1.4435224">
<ele>565</ele>
<time>2017-09-30T14:48:35Z</time>
</trkpt>
<trkpt lat="37.8517394" lon="-1.4437895">
<ele>564</ele>
<time>2017-09-30T14:48:41Z</time>
</trkpt>
<trkpt lat="37.8514589" lon="-1.4438983">
<ele>555</ele>
<time>2017-09-30T14:48:47Z</time>
</trkpt>
<trkpt lat="37.8512014" lon="-1.4438122">
<ele>546</ele>
<time>2017-09-30T14:48:53Z</time>
</trkpt>
<trkpt lat="37.8509695" lon="-1.4434641">
<ele>527</ele>
<time>2017-09-30T14:48:59Z</time>
</trkpt>
<trkpt lat="37.8507873" lon="-1.4431176">
<ele>514</ele>
<time>2017-09-30T14:49:05Z</time>
</trkpt>
<trkpt lat="37.8506544" lon="-1.4427803">
<ele>502</ele>
<time>2017-09-30T14:49:11Z</time>
</trkpt>
<trkpt lat="37.8506360" lon="-1.4423872">
<ele>491</ele>
<time>2017-09-30T14:49:17Z</time>
</trkpt>
<trkpt lat="37.8508913" lon="-1.4418326">
<ele>480</ele>
<time>2017-09-30T14:49:23Z</time>
</trkpt>
<trkpt lat="37.8511004" lon="-1.4413298">
<ele>464</ele>
<time>2017-09-30T14:49:29Z</time>
</trkpt>
<trkpt lat="37.8512242" lon="-1.4408387">
<ele>450</ele>
<time>2017-09-30T14:49:35Z</time>
</trkpt>
<trkpt lat="37.8514347" lon="-1.4404090">
<ele>443</ele>
<time>2017-09-30T14:49:40Z</time>
</trkpt>
<trkpt lat="37.8513731" lon="-1.4400786">
<ele>434</ele>
<time>2017-09-30T14:49:46Z</time>
</trkpt>
<trkpt lat="37.8513210" lon="-1.4397424">
<ele>428</ele>
<time>2017-09-30T14:49:52Z</time>
</trkpt>
<trkpt lat="37.8516721" lon="-1.4391588">
<ele>420</ele>
<time>2017-09-30T14:49:58Z</time>
</trkpt>
<trkpt lat="37.8518015" lon="-1.4386006">
<ele>416</ele>
<time>2017-09-30T14:50:04Z</time>
</trkpt>
<trkpt lat="37.8517080" lon="-1.4379865">
<ele>411</ele>
<time>2017-09-30T14:50:10Z</time>
</trkpt>
<trkpt lat="37.8514283" lon="-1.4376927">
<ele>407</ele>
<time>2017-09-30T14:50:16Z</time>
</trkpt>
<trkpt lat="37.8511307" lon="-1.4377111">
<ele>405</ele>
<time>2017-09-30T14:50:22Z</time>
</trkpt>
<trkpt lat="37.8509123" lon="-1.4378013">
<ele>407</ele>
<time>2017-09-30T14:50:28Z</time>
</trkpt>
<trkpt lat="37.8507836" lon="-1.4379798">
<ele>408</ele>
<time>2017-09-30T14:50:34Z</time>
</trkpt>
<trkpt lat="37.8508302" lon="-1.4384765">
<ele>409</ele>
<time>2017-09-30T14:50:40Z</time>
</trkpt>
<trkpt lat="37.8510236" lon="-1.4390971">
<ele>408</ele>
<time>2017-09-30T14:50:46Z</time>
</trkpt>
<trkpt lat="37.8515650" lon="-1.4394550">
<ele>407</ele>
<time>2017-09-30T14:50:52Z</time>
</trkpt>
<trkpt lat="37.8521936" lon="-1.4395535">
<ele>404</ele>
<time>2017-09-30T14:50:58Z</time>
</trkpt>
<trkpt lat="37.8527559" lon="-1.4394186">
<ele>401</ele>
<time>2017-09-30T14:51:04Z</time>
</trkpt>
<trkpt lat="37.8533365" lon="-1.4391616">
<ele>399</ele>
<time>2017-09-30T14:51:10Z</time>
</trkpt>
<trkpt lat="37.8537867" lon="-1.4385122">
<ele>395</ele>
<time>2017-09-30T14:51:16Z</time>
</trkpt>
<trkpt lat="37.8542381" lon="-1.4379362">
<ele>394</ele>
<time>2017-09-30T14:51:22Z</time>
</trkpt>
<trkpt lat="37.8545099" lon="-1.4373583">
<ele>394</ele>
<time>2017-09-30T14:51:28Z</time>
</trkpt>
<trkpt lat="37.8545969" lon="-1.4368706">
<ele>391</ele>
<time>2017-09-30T14:51:34Z</time>
</trkpt>
<trkpt lat="37.8545406" lon="-1.4364780">
<ele>388</ele>
<time>2017-09-30T14:51:40Z</time>
</trkpt>
<trkpt lat="37.8544032" lon="-1.4365198">
<ele>390</ele>
<time>2017-09-30T14:51:46Z</time>
</trkpt>
<trkpt lat="37.8543039" lon="-1.4368334">
<ele>392</ele>
<time>2017-09-30T14:51:52Z</time>
</trkpt>
<trkpt lat="37.8542346" lon="-1.4369235">
<ele>392</ele>
<time>2017-09-30T14:51:58Z</time>
</trkpt>
<trkpt lat="37.8541049" lon="-1.4369788">
<ele>392</ele>
<time>2017-09-30T14:52:04Z</time>
</trkpt>
<trkpt lat="37.8539637" lon="-1.4369979">
<ele>391</ele>
<time>2017-09-30T14:52:10Z</time>
</trkpt>
<trkpt lat="37.8537935" lon="-1.4369740">
<ele>390</ele>
<time>2017-09-30T14:52:16Z</time>
</trkpt>
<trkpt lat="37.8536258" lon="-1.4370558">
<ele>388</ele>
<time>2017-09-30T14:52:22Z</time>
</trkpt>
<trkpt lat="37.8534760" lon="-1.4369120">
<ele>377</ele>
<time>2017-09-30T14:52:28Z</time>
</trkpt>
<trkpt lat="37.8534482" lon="-1.4366532">
<ele>371</ele>
<time>2017-09-30T14:52:34Z</time>
</trkpt>
<trkpt lat="37.8534429" lon="-1.4363492">
<ele>365</ele>
<time>2017-09-30T14:52:40Z</time>
</trkpt>
<trkpt lat="37.8534193" lon="-1.4360804">
<ele>361</ele>
<time>2017-09-30T14:52:46Z</time>
</trkpt>
<trkpt lat="37.8533660" lon="-1.4358236">
<ele>357</ele>
<time>2017-09-30T14:52:52Z</time>
</trkpt>
<trkpt lat="37.8534617" lon="-1.4354709">
<ele>350</ele>
<time>2017-09-30T14:52:58Z</time>
</trkpt>
<trkpt lat="37.8533716" lon="-1.4352484">
<ele>345</ele>
<time>2017-09-30T14:53:04Z</time>
</trkpt>
<trkpt lat="37.8535114" lon="-1.4357876">
<ele>338</ele>
<time>2017-09-30T14:53:10Z</time>
</trkpt>
<trkpt lat="37.8537151" lon="-1.4363390">
<ele>329</ele>
<time>2017-09-30T14:53:16Z</time>
</trkpt>
<trkpt lat="37.8535882" lon="-1.4365864">
<ele>324</ele>
<time>2017-09-30T14:53:22Z</time>
</trkpt>
<trkpt lat="37.8534037" lon="-1.4365722">
<ele>323</ele>
<time>2017-09-30T14:53:28Z</time>
</trkpt>
<trkpt lat="37.8532207" lon="-1.4365062">
<ele>318</ele>
<time>2017-09-30T14:53:34Z</time>
</trkpt>
<trkpt lat="37.8532170" lon="-1.4364758">
<ele>316</ele>
<time>2017-09-30T14:53:40Z</time>
</trkpt>
<trkpt lat="37.8532170" lon="-1.4364758">
<ele>315</ele>
<time>2017-09-30T14:53:46Z</time>
</trkpt>
<trkpt lat="37.8532170" lon="-1.4364758">
<ele>315</ele>
<time>2017-09-30T14:53:52Z</time>
</trkpt>
<trkpt lat="37.8532170" lon="-1.4364758">
<ele>315</ele>
<time>2017-09-30T14:53:58Z</time>
</trkpt>
<trkpt lat="37.8532170" lon="-1.4364758">
<ele>315</ele>
<time>2017-09-30T14:54:04Z</time>
</trkpt>
<trkpt lat="37.8532170" lon="-1.4364758">
<ele>315</ele>
<time>2017-09-30T14:54:10Z</time>
</trkpt>
<trkpt lat="37.8532917" lon="-1.4364775">
<ele>315</ele>
<time>2017-09-30T14:54:16Z</time>
</trkpt>
<trkpt lat="37.8532917" lon="-1.4364775">
<ele>317</ele>
<time>2017-09-30T14:54:22Z</time>
</trkpt>
<trkpt lat="37.8533097" lon="-1.4364382">
<ele>318</ele>
<time>2017-09-30T14:54:28Z</time>
</trkpt>
<trkpt lat="37.8533129" lon="-1.4364349">
<ele>320</ele>
<time>2017-09-30T14:54:34Z</time>
</trkpt>
<trkpt lat="37.8532926" lon="-1.4365119">
<ele>321</ele>
<time>2017-09-30T14:54:40Z</time>
</trkpt>
<trkpt lat="37.8532677" lon="-1.4365956">
<ele>321</ele>
<time>2017-09-30T14:54:46Z</time>
</trkpt>
<trkpt lat="37.8532524" lon="-1.4366926">
<ele>320</ele>
<time>2017-09-30T14:54:52Z</time>
</trkpt>
<trkpt lat="37.8532660" lon="-1.4367939">
<ele>319</ele>
<time>2017-09-30T14:54:58Z</time>
</trkpt>
<trkpt lat="37.8532945" lon="-1.4368591">
<ele>319</ele>
<time>2017-09-30T14:55:04Z</time>
</trkpt>
<trkpt lat="37.8532646" lon="-1.4368866">
<ele>318</ele>
<time>2017-09-30T14:55:10Z</time>
</trkpt>
<trkpt lat="37.8532423" lon="-1.4368906">
<ele>317</ele>
<time>2017-09-30T14:55:16Z</time>
</trkpt>
<trkpt lat="37.8532413" lon="-1.4368905">
<ele>317</ele>
<time>2017-09-30T14:55:22Z</time>
</trkpt>
<trkpt lat="37.8532409" lon="-1.4368793">
<ele>316</ele>
<time>2017-09-30T14:55:28Z</time>
</trkpt>
<trkpt lat="37.8532378" lon="-1.4368754">
<ele>316</ele>
<time>2017-09-30T14:55:34Z</time>
</trkpt>
<trkpt lat="37.8532322" lon="-1.4368800">
<ele>315</ele>
<time>2017-09-30T14:55:40Z</time>
</trkpt>
<trkpt lat="37.8532193" lon="-1.4368728">
<ele>314</ele>
<time>2017-09-30T14:55:46Z</time>
</trkpt>
<trkpt lat="37.8532168" lon="-1.4368705">
<ele>314</ele>
<time>2017-09-30T14:55:52Z</time>
</trkpt>
<trkpt lat="37.8532150" lon="-1.4368691">
<ele>313</ele>
<time>2017-09-30T14:55:58Z</time>
</trkpt>
<trkpt lat="37.8532133" lon="-1.4368680">
<ele>313</ele>
<time>2017-09-30T14:56:04Z</time>
</trkpt>
<trkpt lat="37.8532111" lon="-1.4368669">
<ele>313</ele>
<time>2017-09-30T14:56:10Z</time>
</trkpt>
<trkpt lat="" lon="">
<ele></ele>
<time>2017-09-30TZ</time>
</trkpt>
</trkseg>
</trk>
<wpt lat="" lon="">
	<name></name>
	<desc></desc>
	<cmt></cmt>
	<photoid></photoid>
	<type></type>
</wpt>
</gpx>
